sensor_id;sensor_type;location;lat;lon;timestamp;pressure;altitude;pressure_sealevel;temperature
49567;BMP280;35472;50.514;30.448;2024-03-23T00:53:36;99702.59;;;9.28
49567;BMP280;35472;50.514;30.448;2024-03-23T00:56:02;99698.69;;;9.37
49567;BMP280;35472;50.514;30.448;2024-03-23T00:58:28;99687.19;;;9.36
49567;BMP280;35472;50.514;30.448;2024-03-23T01:00:54;99689.53;;;9.30
49567;BMP280;35472;50.514;30.448;2024-03-23T01:03:19;99692.25;;;9.27
49567;BMP280;35472;50.514;30.448;2024-03-23T01:05:46;99686.38;;;9.43
49567;BMP280;35472;50.514;30.448;2024-03-23T01:08:14;99676.06;;;9.41
49567;BMP280;35472;50.514;30.448;2024-03-23T01:10:41;99682.66;;;9.29
49567;BMP280;35472;50.514;30.448;2024-03-23T01:13:06;99682.19;;;9.38
49567;BMP280;35472;50.514;30.448;2024-03-23T01:15:32;99677.16;;;9.47
49567;BMP280;35472;50.514;30.448;2024-03-23T01:17:57;99676.03;;;9.38
49567;BMP280;35472;50.514;30.448;2024-03-23T01:20:22;99676.94;;;9.20
49567;BMP280;35472;50.514;30.448;2024-03-23T01:22:48;99672.28;;;9.28
49567;BMP280;35472;50.514;30.448;2024-03-23T01:25:13;99673.31;;;9.48
49567;BMP280;35472;50.514;30.448;2024-03-23T01:27:38;99667.66;;;9.36
49567;BMP280;35472;50.514;30.448;2024-03-23T01:30:04;99673.50;;;9.20
49567;BMP280;35472;50.514;30.448;2024-03-23T01:32:33;99668.38;;;9.40
49567;BMP280;35472;50.514;30.448;2024-03-23T01:34:58;99668.50;;;9.22
49567;BMP280;35472;50.514;30.448;2024-03-23T01:37:24;99668.06;;;9.34
49567;BMP280;35472;50.514;30.448;2024-03-23T01:39:49;99665.31;;;9.41
49567;BMP280;35472;50.514;30.448;2024-03-23T01:42:16;99671.19;;;9.22
49567;BMP280;35472;50.514;30.448;2024-03-23T01:44:44;99663.78;;;9.37
49567;BMP280;35472;50.514;30.448;2024-03-23T01:47:09;99662.41;;;9.14
49567;BMP280;35472;50.514;30.448;2024-03-23T01:49:34;99670.69;;;9.38
49567;BMP280;35472;50.514;30.448;2024-03-23T01:52:00;99667.94;;;9.48
49567;BMP280;35472;50.514;30.448;2024-03-23T01:54:25;99670.38;;;9.28
49567;BMP280;35472;50.514;30.448;2024-03-23T01:56:51;99666.91;;;9.31
49567;BMP280;35472;50.514;30.448;2024-03-23T01:59:16;99656.72;;;9.05
49567;BMP280;35472;50.514;30.448;2024-03-23T02:01:42;99651.56;;;9.36
49567;BMP280;35472;50.514;30.448;2024-03-23T02:04:07;99645.34;;;9.39
49567;BMP280;35472;50.514;30.448;2024-03-23T02:06:35;99636.59;;;9.31
49567;BMP280;35472;50.514;30.448;2024-03-23T02:09:00;99638.59;;;9.20
49567;BMP280;35472;50.514;30.448;2024-03-23T02:11:26;99640.09;;;9.24
49567;BMP280;35472;50.514;30.448;2024-03-23T02:13:51;99629.06;;;9.15
49567;BMP280;35472;50.514;30.448;2024-03-23T02:16:19;99632.88;;;9.14
49567;BMP280;35472;50.514;30.448;2024-03-23T02:18:45;99629.00;;;9.19
49567;BMP280;35472;50.514;30.448;2024-03-23T02:21:10;99627.16;;;9.16
49567;BMP280;35472;50.514;30.448;2024-03-23T02:23:35;99613.78;;;9.02
49567;BMP280;35472;50.514;30.448;2024-03-23T02:26:00;99627.97;;;9.06
49567;BMP280;35472;50.514;30.448;2024-03-23T02:28:28;99622.56;;;9.09
49567;BMP280;35472;50.514;30.448;2024-03-23T02:30:53;99615.25;;;9.13
49567;BMP280;35472;50.514;30.448;2024-03-23T02:33:19;99608.88;;;8.97
49567;BMP280;35472;50.514;30.448;2024-03-23T02:35:45;99619.88;;;9.09
49567;BMP280;35472;50.514;30.448;2024-03-23T02:38:13;99606.81;;;9.15
49567;BMP280;35472;50.514;30.448;2024-03-23T02:40:38;99611.41;;;9.14
49567;BMP280;35472;50.514;30.448;2024-03-23T02:43:04;99607.91;;;9.17
49567;BMP280;35472;50.514;30.448;2024-03-23T02:45:30;99603.41;;;9.11
49567;BMP280;35472;50.514;30.448;2024-03-23T02:47:55;99606.38;;;9.20
49567;BMP280;35472;50.514;30.448;2024-03-23T02:50:22;99604.13;;;9.15
49567;BMP280;35472;50.514;30.448;2024-03-23T02:52:47;99596.78;;;9.22
49567;BMP280;35472;50.514;30.448;2024-03-23T02:55:13;99594.88;;;9.19
49567;BMP280;35472;50.514;30.448;2024-03-23T02:57:38;99593.78;;;9.13
49567;BMP280;35472;50.514;30.448;2024-03-23T03:00:04;99594.88;;;9.19
49567;BMP280;35472;50.514;30.448;2024-03-23T03:02:33;99593.69;;;9.24
49567;BMP280;35472;50.514;30.448;2024-03-23T03:04:59;99590.78;;;9.08
49567;BMP280;35472;50.514;30.448;2024-03-23T03:07:25;99591.47;;;9.15
49567;BMP280;35472;50.514;30.448;2024-03-23T03:09:50;99578.53;;;9.03
49567;BMP280;35472;50.514;30.448;2024-03-23T03:12:16;99583.84;;;9.10
49567;BMP280;35472;50.514;30.448;2024-03-23T03:14:41;99582.31;;;9.09
49567;BMP280;35472;50.514;30.448;2024-03-23T03:17:07;99567.47;;;8.98
49567;BMP280;35472;50.514;30.448;2024-03-23T03:19:34;99569.28;;;9.08
49567;BMP280;35472;50.514;30.448;2024-03-23T03:21:59;99567.78;;;9.00
49567;BMP280;35472;50.514;30.448;2024-03-23T03:24:24;99561.84;;;8.78
49567;BMP280;35472;50.514;30.448;2024-03-23T03:26:50;99561.34;;;8.90
49567;BMP280;35472;50.514;30.448;2024-03-23T03:29:16;99561.38;;;8.87
49567;BMP280;35472;50.514;30.448;2024-03-23T03:31:42;99560.19;;;8.91
49567;BMP280;35472;50.514;30.448;2024-03-23T03:34:08;99557.91;;;8.90
49567;BMP280;35472;50.514;30.448;2024-03-23T03:36:33;99551.06;;;8.81
49567;BMP280;35472;50.514;30.448;2024-03-23T03:38:58;99551.09;;;8.74
49567;BMP280;35472;50.514;30.448;2024-03-23T03:41:24;99557.25;;;8.71
49567;BMP280;35472;50.514;30.448;2024-03-23T03:43:49;99563.69;;;8.88
49567;BMP280;35472;50.514;30.448;2024-03-23T03:46:15;99558.75;;;8.79
49567;BMP280;35472;50.514;30.448;2024-03-23T03:48:40;99555.59;;;8.92
49567;BMP280;35472;50.514;30.448;2024-03-23T03:51:05;99550.25;;;8.88
49567;BMP280;35472;50.514;30.448;2024-03-23T03:53:31;99542.69;;;8.76
49567;BMP280;35472;50.514;30.448;2024-03-23T03:56:00;99547.66;;;8.77
49567;BMP280;35472;50.514;30.448;2024-03-23T03:58:26;99544.59;;;8.79
49567;BMP280;35472;50.514;30.448;2024-03-23T04:00:51;99544.97;;;8.77
49567;BMP280;35472;50.514;30.448;2024-03-23T04:03:17;99542.66;;;8.79
49567;BMP280;35472;50.514;30.448;2024-03-23T04:05:42;99540.38;;;8.78
49567;BMP280;35472;50.514;30.448;2024-03-23T04:08:07;99544.91;;;8.84
49567;BMP280;35472;50.514;30.448;2024-03-23T04:10:35;99538.00;;;8.87
49567;BMP280;35472;50.514;30.448;2024-03-23T04:13:01;99545.63;;;8.92
49567;BMP280;35472;50.514;30.448;2024-03-23T04:15:28;99532.75;;;8.73
49567;BMP280;35472;50.514;30.448;2024-03-23T04:17:53;99530.78;;;8.77
49567;BMP280;35472;50.514;30.448;2024-03-23T04:20:19;99529.97;;;8.83
49567;BMP280;35472;50.514;30.448;2024-03-23T04:22:44;99531.19;;;8.72
49567;BMP280;35472;50.514;30.448;2024-03-23T04:25:10;99534.19;;;8.84
49567;BMP280;35472;50.514;30.448;2024-03-23T04:27:36;99537.19;;;8.94
49567;BMP280;35472;50.514;30.448;2024-03-23T04:30:02;99532.59;;;8.91
49567;BMP280;35472;50.514;30.448;2024-03-23T04:32:29;99537.50;;;9.03
49567;BMP280;35472;50.514;30.448;2024-03-23T04:34:55;99535.66;;;8.96
49567;BMP280;35472;50.514;30.448;2024-03-23T04:37:20;99532.50;;;9.05
49567;BMP280;35472;50.514;30.448;2024-03-23T04:39:46;99536.25;;;9.14
49567;BMP280;35472;50.514;30.448;2024-03-23T04:42:17;99530.78;;;9.25
49567;BMP280;35472;50.514;30.448;2024-03-23T04:44:44;99532.75;;;9.21
49567;BMP280;35472;50.514;30.448;2024-03-23T04:47:10;99517.69;;;9.30
49567;BMP280;35472;50.514;30.448;2024-03-23T04:49:38;99521.63;;;9.19
49567;BMP280;35472;50.514;30.448;2024-03-23T04:52:05;99510.25;;;9.08
49567;BMP280;35472;50.514;30.448;2024-03-23T04:54:31;99506.84;;;9.00
49567;BMP280;35472;50.514;30.448;2024-03-23T04:56:59;99507.94;;;9.06
49567;BMP280;35472;50.514;30.448;2024-03-23T04:59:25;99509.66;;;9.27
49567;BMP280;35472;50.514;30.448;2024-03-23T05:01:51;99507.38;;;9.29
49567;BMP280;35472;50.514;30.448;2024-03-23T05:04:16;99509.38;;;9.55
49567;BMP280;35472;50.514;30.448;2024-03-23T05:06:43;99508.13;;;9.63
49567;BMP280;35472;50.514;30.448;2024-03-23T05:09:09;99506.22;;;9.64
49567;BMP280;35472;50.514;30.448;2024-03-23T05:11:38;99506.63;;;9.62
49567;BMP280;35472;50.514;30.448;2024-03-23T05:14:03;99511.28;;;9.55
49567;BMP280;35472;50.514;30.448;2024-03-23T05:16:29;99510.97;;;9.53
49567;BMP280;35472;50.514;30.448;2024-03-23T05:18:54;99503.59;;;9.60
49567;BMP280;35472;50.514;30.448;2024-03-23T05:21:20;99498.34;;;9.46
49567;BMP280;35472;50.514;30.448;2024-03-23T05:23:45;99497.16;;;9.51
49567;BMP280;35472;50.514;30.448;2024-03-23T05:26:11;99503.19;;;9.62
49567;BMP280;35472;50.514;30.448;2024-03-23T05:28:36;99511.28;;;9.58
49567;BMP280;35472;50.514;30.448;2024-03-23T05:31:03;99501.03;;;9.46
49567;BMP280;35472;50.514;30.448;2024-03-23T05:33:31;99509.75;;;9.57
49567;BMP280;35472;50.514;30.448;2024-03-23T05:35:57;99509.56;;;9.75
49567;BMP280;35472;50.514;30.448;2024-03-23T05:38:23;99507.63;;;9.75
49567;BMP280;35472;50.514;30.448;2024-03-23T05:40:55;99507.38;;;9.66
49567;BMP280;35472;50.514;30.448;2024-03-23T05:43:21;99497.66;;;9.76
49567;BMP280;35472;50.514;30.448;2024-03-23T05:45:56;99505.22;;;9.85
49567;BMP280;35472;50.514;30.448;2024-03-23T05:48:22;99504.84;;;9.82
49567;BMP280;35472;50.514;30.448;2024-03-23T05:50:51;99505.72;;;9.76
49567;BMP280;35472;50.514;30.448;2024-03-23T05:53:16;99508.94;;;9.94
49567;BMP280;35472;50.514;30.448;2024-03-23T05:55:42;99497.34;;;10.01
49567;BMP280;35472;50.514;30.448;2024-03-23T05:58:08;99498.53;;;10.26
49567;BMP280;35472;50.514;30.448;2024-03-23T06:00:33;99496.28;;;9.95
49567;BMP280;35472;50.514;30.448;2024-03-23T06:03:01;99491.94;;;10.04
49567;BMP280;35472;50.514;30.448;2024-03-23T06:05:27;99490.31;;;9.80
49567;BMP280;35472;50.514;30.448;2024-03-23T06:07:52;99492.53;;;9.89
49567;BMP280;35472;50.514;30.448;2024-03-23T06:10:18;99497.13;;;9.88
49567;BMP280;35472;50.514;30.448;2024-03-23T06:12:43;99491.34;;;9.90
49567;BMP280;35472;50.514;30.448;2024-03-23T06:15:10;99493.03;;;9.76
49567;BMP280;35472;50.514;30.448;2024-03-23T06:17:36;99496.97;;;9.99
49567;BMP280;35472;50.514;30.448;2024-03-23T06:20:02;99496.34;;;10.18
49567;BMP280;35472;50.514;30.448;2024-03-23T06:22:28;99491.47;;;10.09
49567;BMP280;35472;50.514;30.448;2024-03-23T06:24:53;99483.13;;;10.04
49567;BMP280;35472;50.514;30.448;2024-03-23T06:27:18;99483.91;;;10.01
49567;BMP280;35472;50.514;30.448;2024-03-23T06:29:44;99491.81;;;10.11
49567;BMP280;35472;50.514;30.448;2024-03-23T06:32:09;99491.56;;;10.02
49567;BMP280;35472;50.514;30.448;2024-03-23T06:34:34;99497.47;;;10.20
49567;BMP280;35472;50.514;30.448;2024-03-23T06:37:00;99495.50;;;9.94
49567;BMP280;35472;50.514;30.448;2024-03-23T06:39:25;99504.81;;;10.16
49567;BMP280;35472;50.514;30.448;2024-03-23T06:41:54;99494.72;;;10.24
49567;BMP280;35472;50.514;30.448;2024-03-23T06:44:20;99495.16;;;10.22
49567;BMP280;35472;50.514;30.448;2024-03-23T06:46:49;99501.06;;;10.10
49567;BMP280;35472;50.514;30.448;2024-03-23T06:49:15;99492.53;;;10.15
49567;BMP280;35472;50.514;30.448;2024-03-23T06:51:42;99504.94;;;10.36
49567;BMP280;35472;50.514;30.448;2024-03-23T06:54:08;99484.44;;;10.19
49567;BMP280;35472;50.514;30.448;2024-03-23T06:56:35;99492.19;;;10.40
49567;BMP280;35472;50.514;30.448;2024-03-23T06:59:00;99491.59;;;10.29
49567;BMP280;35472;50.514;30.448;2024-03-23T07:01:26;99488.50;;;10.04
49567;BMP280;35472;50.514;30.448;2024-03-23T07:03:53;99487.72;;;10.30
49567;BMP280;35472;50.514;30.448;2024-03-23T07:06:18;99489.34;;;10.24
49567;BMP280;35472;50.514;30.448;2024-03-23T07:08:44;99482.78;;;10.25
49567;BMP280;35472;50.514;30.448;2024-03-23T07:11:09;99483.94;;;10.27
49567;BMP280;35472;50.514;30.448;2024-03-23T07:13:35;99478.28;;;10.45
49567;BMP280;35472;50.514;30.448;2024-03-23T07:16:04;99477.25;;;10.62
49567;BMP280;35472;50.514;30.448;2024-03-23T07:18:29;99481.47;;;10.63
49567;BMP280;35472;50.514;30.448;2024-03-23T07:20:56;99481.53;;;10.83
49567;BMP280;35472;50.514;30.448;2024-03-23T07:23:22;99478.19;;;10.52
49567;BMP280;35472;50.514;30.448;2024-03-23T07:26:00;99478.06;;;10.82
49567;BMP280;35472;50.514;30.448;2024-03-23T07:28:26;99471.41;;;10.91
49567;BMP280;35472;50.514;30.448;2024-03-23T07:33:31;99466.31;;;10.96
49567;BMP280;35472;50.514;30.448;2024-03-23T07:35:57;99477.47;;;11.18
49567;BMP280;35472;50.514;30.448;2024-03-23T07:38:24;99470.16;;;11.38
49567;BMP280;35472;50.514;30.448;2024-03-23T07:40:49;99467.47;;;11.38
49567;BMP280;35472;50.514;30.448;2024-03-23T07:43:22;99470.28;;;11.31
49567;BMP280;35472;50.514;30.448;2024-03-23T07:45:53;99466.59;;;11.61
49567;BMP280;35472;50.514;30.448;2024-03-23T07:48:21;99466.81;;;12.06
49567;BMP280;35472;50.514;30.448;2024-03-23T07:53:33;99467.81;;;11.60
49567;BMP280;35472;50.514;30.448;2024-03-23T07:56:05;99468.06;;;11.85
49567;BMP280;35472;50.514;30.448;2024-03-23T07:58:30;99466.41;;;12.07
49567;BMP280;35472;50.514;30.448;2024-03-23T08:01:06;99458.72;;;12.06
49567;BMP280;35472;50.514;30.448;2024-03-23T08:03:35;99457.38;;;12.30
49567;BMP280;35472;50.514;30.448;2024-03-23T08:06:08;99462.13;;;12.58
49567;BMP280;35472;50.514;30.448;2024-03-23T08:08:34;99456.81;;;12.38
49567;BMP280;35472;50.514;30.448;2024-03-23T08:11:00;99453.78;;;12.20
49567;BMP280;35472;50.514;30.448;2024-03-23T08:13:26;99457.34;;;12.33
49567;BMP280;35472;50.514;30.448;2024-03-23T08:15:52;99451.84;;;12.21
49567;BMP280;35472;50.514;30.448;2024-03-23T08:18:17;99453.44;;;12.18
49567;BMP280;35472;50.514;30.448;2024-03-23T08:20:42;99457.94;;;12.41
49567;BMP280;35472;50.514;30.448;2024-03-23T08:23:08;99455.31;;;12.21
49567;BMP280;35472;50.514;30.448;2024-03-23T08:25:34;99446.16;;;11.99
49567;BMP280;35472;50.514;30.448;2024-03-23T08:28:00;99432.00;;;11.95
49567;BMP280;35472;50.514;30.448;2024-03-23T08:30:26;99434.88;;;12.04
49567;BMP280;35472;50.514;30.448;2024-03-23T08:32:51;99428.03;;;12.48
49567;BMP280;35472;50.514;30.448;2024-03-23T08:35:17;99428.56;;;12.27
49567;BMP280;35472;50.514;30.448;2024-03-23T08:37:44;99422.78;;;12.73
49567;BMP280;35472;50.514;30.448;2024-03-23T08:40:10;99425.59;;;12.54
49567;BMP280;35472;50.514;30.448;2024-03-23T08:42:36;99423.94;;;12.72
49567;BMP280;35472;50.514;30.448;2024-03-23T08:45:02;99415.91;;;12.56
49567;BMP280;35472;50.514;30.448;2024-03-23T08:47:27;99418.47;;;12.47
49567;BMP280;35472;50.514;30.448;2024-03-23T08:49:52;99421.63;;;13.03
49567;BMP280;35472;50.514;30.448;2024-03-23T08:52:18;99413.91;;;12.73
49567;BMP280;35472;50.514;30.448;2024-03-23T08:54:43;99418.84;;;12.90
49567;BMP280;35472;50.514;30.448;2024-03-23T08:57:09;99414.16;;;13.07
49567;BMP280;35472;50.514;30.448;2024-03-23T08:59:34;99409.16;;;13.06
49567;BMP280;35472;50.514;30.448;2024-03-23T09:02:00;99410.91;;;12.55
49567;BMP280;35472;50.514;30.448;2024-03-23T09:04:25;99410.13;;;12.70
49567;BMP280;35472;50.514;30.448;2024-03-23T09:06:51;99399.38;;;13.24
49567;BMP280;35472;50.514;30.448;2024-03-23T09:09:19;99388.38;;;13.31
49567;BMP280;35472;50.514;30.448;2024-03-23T09:11:45;99388.75;;;13.59
49567;BMP280;35472;50.514;30.448;2024-03-23T09:14:10;99388.91;;;14.15
49567;BMP280;35472;50.514;30.448;2024-03-23T09:16:36;99387.16;;;14.42
49567;BMP280;35472;50.514;30.448;2024-03-23T09:19:01;99387.41;;;14.70
49567;BMP280;35472;50.514;30.448;2024-03-23T09:21:28;99386.06;;;14.96
49567;BMP280;35472;50.514;30.448;2024-03-23T09:23:54;99379.63;;;14.37
49567;BMP280;35472;50.514;30.448;2024-03-23T09:26:21;99376.41;;;14.64
49567;BMP280;35472;50.514;30.448;2024-03-23T09:28:50;99378.53;;;14.69
49567;BMP280;35472;50.514;30.448;2024-03-23T09:31:15;99368.16;;;15.29
49567;BMP280;35472;50.514;30.448;2024-03-23T09:33:41;99357.50;;;15.35
49567;BMP280;35472;50.514;30.448;2024-03-23T09:36:07;99362.25;;;15.61
49567;BMP280;35472;50.514;30.448;2024-03-23T09:38:34;99360.56;;;15.15
49567;BMP280;35472;50.514;30.448;2024-03-23T09:40:59;99353.41;;;15.21
49567;BMP280;35472;50.514;30.448;2024-03-23T09:43:27;99353.56;;;14.96
49567;BMP280;35472;50.514;30.448;2024-03-23T09:45:53;99344.50;;;15.21
49567;BMP280;35472;50.514;30.448;2024-03-23T09:48:18;99355.47;;;14.86
49567;BMP280;35472;50.514;30.448;2024-03-23T09:50:45;99358.63;;;15.16
49567;BMP280;35472;50.514;30.448;2024-03-23T09:53:12;99347.66;;;15.19
49567;BMP280;35472;50.514;30.448;2024-03-23T09:55:39;99348.34;;;15.41
49567;BMP280;35472;50.514;30.448;2024-03-23T09:58:08;99342.84;;;15.23
49567;BMP280;35472;50.514;30.448;2024-03-23T10:00:34;99346.13;;;15.67
49567;BMP280;35472;50.514;30.448;2024-03-23T10:03:00;99353.78;;;16.08
49567;BMP280;35472;50.514;30.448;2024-03-23T10:05:30;99339.47;;;15.50
49567;BMP280;35472;50.514;30.448;2024-03-23T10:08:17;99339.63;;;15.55
49567;BMP280;35472;50.514;30.448;2024-03-23T10:10:44;99335.16;;;15.80
49567;BMP280;35472;50.514;30.448;2024-03-23T10:13:10;99333.25;;;15.40
49567;BMP280;35472;50.514;30.448;2024-03-23T10:15:38;99326.97;;;15.43
49567;BMP280;35472;50.514;30.448;2024-03-23T10:20:41;99319.06;;;15.85
49567;BMP280;35472;50.514;30.448;2024-03-23T10:23:15;99306.53;;;15.79
49567;BMP280;35472;50.514;30.448;2024-03-23T10:25:41;99298.84;;;16.32
49567;BMP280;35472;50.514;30.448;2024-03-23T10:28:06;99303.66;;;16.28
49567;BMP280;35472;50.514;30.448;2024-03-23T10:30:32;99311.38;;;16.38
49567;BMP280;35472;50.514;30.448;2024-03-23T10:33:08;99311.47;;;16.53
49567;BMP280;35472;50.514;30.448;2024-03-23T10:35:34;99308.78;;;16.35
49567;BMP280;35472;50.514;30.448;2024-03-23T10:38:01;99304.25;;;16.41
49567;BMP280;35472;50.514;30.448;2024-03-23T10:40:29;99299.72;;;16.56
49567;BMP280;35472;50.514;30.448;2024-03-23T10:42:58;99294.66;;;16.72
49567;BMP280;35472;50.514;30.448;2024-03-23T10:45:23;99284.97;;;16.39
49567;BMP280;35472;50.514;30.448;2024-03-23T10:47:49;99283.00;;;16.21
49567;BMP280;35472;50.514;30.448;2024-03-23T10:50:14;99276.81;;;16.30
49567;BMP280;35472;50.514;30.448;2024-03-23T10:52:44;99272.00;;;15.52
49567;BMP280;35472;50.514;30.448;2024-03-23T10:55:11;99260.25;;;15.64
49567;BMP280;35472;50.514;30.448;2024-03-23T10:57:47;99274.03;;;15.21
49567;BMP280;35472;50.514;30.448;2024-03-23T11:00:16;99269.56;;;15.45
49567;BMP280;35472;50.514;30.448;2024-03-23T11:02:42;99268.50;;;15.42
49567;BMP280;35472;50.514;30.448;2024-03-23T11:07:52;99259.22;;;15.71
49567;BMP280;35472;50.514;30.448;2024-03-23T11:10:25;99247.47;;;15.64
49567;BMP280;35472;50.514;30.448;2024-03-23T11:12:52;99254.19;;;15.42
49567;BMP280;35472;50.514;30.448;2024-03-23T11:15:18;99245.78;;;15.85
49567;BMP280;35472;50.514;30.448;2024-03-23T11:18:21;99242.28;;;15.21
49567;BMP280;35472;50.514;30.448;2024-03-23T11:20:46;99237.03;;;15.63
49567;BMP280;35472;50.514;30.448;2024-03-23T11:23:27;99241.69;;;15.53
49567;BMP280;35472;50.514;30.448;2024-03-23T11:25:53;99231.31;;;15.61
49567;BMP280;35472;50.514;30.448;2024-03-23T11:28:18;99242.03;;;15.92
49567;BMP280;35472;50.514;30.448;2024-03-23T11:30:44;99235.06;;;15.36
49567;BMP280;35472;50.514;30.448;2024-03-23T11:33:09;99230.06;;;15.26
49567;BMP280;35472;50.514;30.448;2024-03-23T11:35:37;99237.44;;;15.34
49567;BMP280;35472;50.514;30.448;2024-03-23T11:38:11;99226.03;;;15.39
49567;BMP280;35472;50.514;30.448;2024-03-23T11:40:44;99225.41;;;15.35
49567;BMP280;35472;50.514;30.448;2024-03-23T11:43:15;99218.34;;;15.47
49567;BMP280;35472;50.514;30.448;2024-03-23T11:45:46;99222.13;;;15.68
49567;BMP280;35472;50.514;30.448;2024-03-23T11:48:16;99219.69;;;15.33
49567;BMP280;35472;50.514;30.448;2024-03-23T11:50:47;99215.09;;;15.03
49567;BMP280;35472;50.514;30.448;2024-03-23T11:53:18;99209.09;;;15.08
49567;BMP280;35472;50.514;30.448;2024-03-23T11:55:49;99199.28;;;15.01
49567;BMP280;35472;50.514;30.448;2024-03-23T11:58:16;99203.47;;;14.93
49567;BMP280;35472;50.514;30.448;2024-03-23T12:00:48;99194.13;;;14.94
49567;BMP280;35472;50.514;30.448;2024-03-23T12:03:16;99200.09;;;15.20
49567;BMP280;35472;50.514;30.448;2024-03-23T12:05:41;99201.13;;;15.14
49567;BMP280;35472;50.514;30.448;2024-03-23T12:08:17;99198.91;;;15.21
49567;BMP280;35472;50.514;30.448;2024-03-23T12:10:49;99200.25;;;15.44
49567;BMP280;35472;50.514;30.448;2024-03-23T12:13:16;99192.47;;;15.64
49567;BMP280;35472;50.514;30.448;2024-03-23T12:15:43;99191.53;;;15.49
49567;BMP280;35472;50.514;30.448;2024-03-23T12:18:08;99185.22;;;15.43
49567;BMP280;35472;50.514;30.448;2024-03-23T12:20:34;99191.09;;;14.83
49567;BMP280;35472;50.514;30.448;2024-03-23T12:23:07;99185.56;;;14.87
49567;BMP280;35472;50.514;30.448;2024-03-23T12:25:33;99180.78;;;15.18
49567;BMP280;35472;50.514;30.448;2024-03-23T12:28:01;99177.78;;;15.34
49567;BMP280;35472;50.514;30.448;2024-03-23T12:30:27;99176.88;;;15.10
49567;BMP280;35472;50.514;30.448;2024-03-23T12:32:52;99181.31;;;14.86
49567;BMP280;35472;50.514;30.448;2024-03-23T12:35:19;99165.50;;;14.84
49567;BMP280;35472;50.514;30.448;2024-03-23T12:37:45;99166.25;;;14.85
49567;BMP280;35472;50.514;30.448;2024-03-23T12:40:11;99173.25;;;15.04
49567;BMP280;35472;50.514;30.448;2024-03-23T12:42:36;99168.84;;;14.88
49567;BMP280;35472;50.514;30.448;2024-03-23T12:45:02;99167.97;;;15.00
49567;BMP280;35472;50.514;30.448;2024-03-23T12:47:30;99164.97;;;15.07
49567;BMP280;35472;50.514;30.448;2024-03-23T12:49:55;99173.09;;;15.07
49567;BMP280;35472;50.514;30.448;2024-03-23T12:52:20;99168.31;;;15.30
49567;BMP280;35472;50.514;30.448;2024-03-23T12:54:46;99155.94;;;15.01
49567;BMP280;35472;50.514;30.448;2024-03-23T12:57:12;99159.84;;;15.00
49567;BMP280;35472;50.514;30.448;2024-03-23T12:59:37;99151.69;;;14.91
49567;BMP280;35472;50.514;30.448;2024-03-23T13:02:05;99148.44;;;15.15
49567;BMP280;35472;50.514;30.448;2024-03-23T13:04:31;99149.94;;;15.16
49567;BMP280;35472;50.514;30.448;2024-03-23T13:06:57;99140.63;;;15.26
49567;BMP280;35472;50.514;30.448;2024-03-23T13:09:22;99145.84;;;15.11
49567;BMP280;35472;50.514;30.448;2024-03-23T13:11:47;99140.13;;;15.09
49567;BMP280;35472;50.514;30.448;2024-03-23T13:14:13;99143.63;;;15.19
49567;BMP280;35472;50.514;30.448;2024-03-23T13:16:41;99140.44;;;15.02
49567;BMP280;35472;50.514;30.448;2024-03-23T13:19:07;99134.69;;;15.00
49567;BMP280;35472;50.514;30.448;2024-03-23T13:21:32;99138.16;;;15.00
49567;BMP280;35472;50.514;30.448;2024-03-23T13:23:58;99130.78;;;14.92
49567;BMP280;35472;50.514;30.448;2024-03-23T13:26:23;99136.63;;;14.90
49567;BMP280;35472;50.514;30.448;2024-03-23T13:28:48;99133.56;;;14.70
49567;BMP280;35472;50.514;30.448;2024-03-23T13:31:14;99122.72;;;14.61
49567;BMP280;35472;50.514;30.448;2024-03-23T13:33:39;99119.06;;;14.46
49567;BMP280;35472;50.514;30.448;2024-03-23T13:36:05;99124.38;;;14.68
49567;BMP280;35472;50.514;30.448;2024-03-23T13:38:30;99122.78;;;14.88
49567;BMP280;35472;50.514;30.448;2024-03-23T13:40:57;99119.28;;;14.70
49567;BMP280;35472;50.514;30.448;2024-03-23T13:43:26;99123.09;;;14.81
49567;BMP280;35472;50.514;30.448;2024-03-23T13:45:56;99113.88;;;14.70
49567;BMP280;35472;50.514;30.448;2024-03-23T13:48:26;99115.41;;;14.80
49567;BMP280;35472;50.514;30.448;2024-03-23T13:51:04;99114.75;;;14.67
49567;BMP280;35472;50.514;30.448;2024-03-23T13:53:31;99113.47;;;14.98
49567;BMP280;35472;50.514;30.448;2024-03-23T13:55:58;99114.81;;;15.03
49567;BMP280;35472;50.514;30.448;2024-03-23T13:58:23;99121.50;;;15.20
49567;BMP280;35472;50.514;30.448;2024-03-23T14:00:51;99112.31;;;15.27
49567;BMP280;35472;50.514;30.448;2024-03-23T14:03:16;99116.66;;;15.42
49567;BMP280;35472;50.514;30.448;2024-03-23T14:05:43;99116.78;;;15.12
49567;BMP280;35472;50.514;30.448;2024-03-23T14:08:09;99106.41;;;15.01
49567;BMP280;35472;50.514;30.448;2024-03-23T14:10:35;99110.63;;;15.11
49567;BMP280;35472;50.514;30.448;2024-03-23T14:13:05;99102.19;;;15.00
49567;BMP280;35472;50.514;30.448;2024-03-23T14:15:31;99099.94;;;14.98
49567;BMP280;35472;50.514;30.448;2024-03-23T14:17:57;99098.97;;;14.74
49567;BMP280;35472;50.514;30.448;2024-03-23T14:20:23;99095.53;;;14.74
49567;BMP280;35472;50.514;30.448;2024-03-23T14:22:49;99103.31;;;14.72
49567;BMP280;35472;50.514;30.448;2024-03-23T14:25:14;99102.91;;;14.82
49567;BMP280;35472;50.514;30.448;2024-03-23T14:27:45;99102.78;;;14.95
49567;BMP280;35472;50.514;30.448;2024-03-23T14:30:11;99100.97;;;14.92
49567;BMP280;35472;50.514;30.448;2024-03-23T14:32:39;99099.31;;;15.03
49567;BMP280;35472;50.514;30.448;2024-03-23T14:35:05;99095.41;;;14.95
49567;BMP280;35472;50.514;30.448;2024-03-23T14:37:32;99096.59;;;14.85
49567;BMP280;35472;50.514;30.448;2024-03-23T14:39:58;99097.19;;;14.80
49567;BMP280;35472;50.514;30.448;2024-03-23T14:42:24;99100.78;;;14.77
49567;BMP280;35472;50.514;30.448;2024-03-23T14:44:50;99089.94;;;14.68
49567;BMP280;35472;50.514;30.448;2024-03-23T14:47:17;99082.63;;;14.87
49567;BMP280;35472;50.514;30.448;2024-03-23T14:49:46;99085.59;;;14.80
49567;BMP280;35472;50.514;30.448;2024-03-23T14:52:19;99080.81;;;14.84
49567;BMP280;35472;50.514;30.448;2024-03-23T14:54:45;99074.81;;;15.07
49567;BMP280;35472;50.514;30.448;2024-03-23T14:57:11;99072.84;;;15.07
49567;BMP280;35472;50.514;30.448;2024-03-23T14:59:36;99082.75;;;15.10
49567;BMP280;35472;50.514;30.448;2024-03-23T15:02:08;99068.59;;;14.88